sensor_id;sensor_type;location;lat;lon;timestamp;temperature;humidity
4314;DHT22;2170;48.794;9.182;2023-08-30T00:00:20;14.10;99.90
4314;DHT22;2170;48.794;9.182;2023-08-30T00:02:57;14.10;99.90
4314;DHT22;2170;48.794;9.182;2023-08-30T00:05:31;14.10;99.90
4314;DHT22;2170;48.794;9.182;2023-08-30T00:08:03;14.10;99.90
4314;DHT22;2170;48.794;9.182;2023-08-30T00:10:36;14.10;99.90
4314;DHT22;2170;48.794;9.182;2023-08-30T00:13:14;14.10;99.90
4314;DHT22;2170;48.794;9.182;2023-08-30T00:15:51;14.10;99.90
4314;DHT22;2170;48.794;9.182;2023-08-30T00:18:20;14.20;99.90
4314;DHT22;2170;48.794;9.182;2023-08-30T00:21:06;14.10;99.90
4314;DHT22;2170;48.794;9.182;2023-08-30T00:23:39;14.10;99.90
4314;DHT22;2170;48.794;9.182;2023-08-30T00:26:10;14.10;99.90
4314;DHT22;2170;48.794;9.182;2023-08-30T00:28:40;14.10;99.90
4314;DHT22;2170;48.794;9.182;2023-08-30T00:31:11;14.10;99.90
4314;DHT22;2170;48.794;9.182;2023-08-30T00:33:43;14.10;99.90
4314;DHT22;2170;48.794;9.182;2023-08-30T00:36:20;14.00;99.90
4314;DHT22;2170;48.794;9.182;2023-08-30T00:38:59;14.10;99.90
4314;DHT22;2170;48.794;9.182;2023-08-30T00:41:32;14.00;99.90
4314;DHT22;2170;48.794;9.182;2023-08-30T00:44:10;14.00;99.90
4314;DHT22;2170;48.794;9.182;2023-08-30T00:46:40;14.00;99.90
4314;DHT22;2170;48.794;9.182;2023-08-30T00:49:13;14.00;99.90
4314;DHT22;2170;48.794;9.182;2023-08-30T00:51:44;14.00;99.90
4314;DHT22;2170;48.794;9.182;2023-08-30T00:54:15;14.00;99.90
4314;DHT22;2170;48.794;9.182;2023-08-30T00:56:46;14.30;99.90
4314;DHT22;2170;48.794;9.182;2023-08-30T00:59:22;13.90;99.90
4314;DHT22;2170;48.794;9.182;2023-08-30T01:01:55;13.90;99.90
4314;DHT22;2170;48.794;9.182;2023-08-30T01:07:12;14.00;99.90
4314;DHT22;2170;48.794;9.182;2023-08-30T01:09:52;14.00;99.90
4314;DHT22;2170;48.794;9.182;2023-08-30T01:12:33;13.90;99.90
4314;DHT22;2170;48.794;9.182;2023-08-30T01:15:11;14.00;99.90
4314;DHT22;2170;48.794;9.182;2023-08-30T01:17:50;14.00;99.90
4314;DHT22;2170;48.794;9.182;2023-08-30T01:20:37;13.90;99.90
4314;DHT22;2170;48.794;9.182;2023-08-30T01:23:30;14.00;99.90
4314;DHT22;2170;48.794;9.182;2023-08-30T01:26:15;13.90;99.90
4314;DHT22;2170;48.794;9.182;2023-08-30T01:32:01;14.00;99.90
4314;DHT22;2170;48.794;9.182;2023-08-30T01:34:36;14.00;99.90
4314;DHT22;2170;48.794;9.182;2023-08-30T01:37:11;14.00;99.90
4314;DHT22;2170;48.794;9.182;2023-08-30T01:39:49;14.10;99.90
4314;DHT22;2170;48.794;9.182;2023-08-30T01:42:33;14.00;99.90
4314;DHT22;2170;48.794;9.182;2023-08-30T01:45:13;13.90;99.90
4314;DHT22;2170;48.794;9.182;2023-08-30T01:47:55;13.90;99.90
4314;DHT22;2170;48.794;9.182;2023-08-30T01:50:31;13.90;99.90
4314;DHT22;2170;48.794;9.182;2023-08-30T01:53:10;13.80;99.90
4314;DHT22;2170;48.794;9.182;2023-08-30T01:55:46;13.80;99.90
4314;DHT22;2170;48.794;9.182;2023-08-30T01:58:28;13.80;99.90
4314;DHT22;2170;48.794;9.182;2023-08-30T02:01:02;13.80;99.90
4314;DHT22;2170;48.794;9.182;2023-08-30T02:03:51;13.70;99.90
4314;DHT22;2170;48.794;9.182;2023-08-30T02:07:00;13.70;99.90
4314;DHT22;2170;48.794;9.182;2023-08-30T02:09:41;13.70;99.90
4314;DHT22;2170;48.794;9.182;2023-08-30T02:12:15;13.60;99.90
4314;DHT22;2170;48.794;9.182;2023-08-30T02:14:51;13.60;99.90
4314;DHT22;2170;48.794;9.182;2023-08-30T02:17:26;13.60;99.90
4314;DHT22;2170;48.794;9.182;2023-08-30T02:20:02;13.60;99.90
4314;DHT22;2170;48.794;9.182;2023-08-30T02:22:42;13.50;99.90
4314;DHT22;2170;48.794;9.182;2023-08-30T02:25:14;13.50;99.90
4314;DHT22;2170;48.794;9.182;2023-08-30T02:27:54;13.50;99.90
4314;DHT22;2170;48.794;9.182;2023-08-30T02:30:31;13.60;99.90
4314;DHT22;2170;48.794;9.182;2023-08-30T02:33:09;13.50;99.90
4314;DHT22;2170;48.794;9.182;2023-08-30T02:35:50;13.60;99.90
4314;DHT22;2170;48.794;9.182;2023-08-30T02:38:23;13.60;99.90
4314;DHT22;2170;48.794;9.182;2023-08-30T02:40:57;13.60;99.90
4314;DHT22;2170;48.794;9.182;2023-08-30T02:43:35;13.60;99.90
4314;DHT22;2170;48.794;9.182;2023-08-30T02:46:05;13.50;99.90
4314;DHT22;2170;48.794;9.182;2023-08-30T02:48:38;13.50;99.90
4314;DHT22;2170;48.794;9.182;2023-08-30T02:51:18;13.50;99.90
4314;DHT22;2170;48.794;9.182;2023-08-30T02:54:02;13.50;99.90
4314;DHT22;2170;48.794;9.182;2023-08-30T02:56:54;13.40;99.90
4314;DHT22;2170;48.794;9.182;2023-08-30T02:59:26;13.40;99.90
4314;DHT22;2170;48.794;9.182;2023-08-30T03:02:00;13.40;99.90
4314;DHT22;2170;48.794;9.182;2023-08-30T03:04:33;13.40;99.90
4314;DHT22;2170;48.794;9.182;2023-08-30T03:07:01;13.50;99.90
4314;DHT22;2170;48.794;9.182;2023-08-30T03:09:32;13.30;99.90
4314;DHT22;2170;48.794;9.182;2023-08-30T03:12:08;13.30;99.90
4314;DHT22;2170;48.794;9.182;2023-08-30T03:14:39;13.30;99.90
4314;DHT22;2170;48.794;9.182;2023-08-30T03:17:39;13.30;99.90
4314;DHT22;2170;48.794;9.182;2023-08-30T03:20:30;13.30;99.90
4314;DHT22;2170;48.794;9.182;2023-08-30T03:23:09;13.30;99.90
4314;DHT22;2170;48.794;9.182;2023-08-30T03:25:48;13.30;99.90
4314;DHT22;2170;48.794;9.182;2023-08-30T03:28:24;13.30;99.90
4314;DHT22;2170;48.794;9.182;2023-08-30T03:30:58;13.30;99.90
4314;DHT22;2170;48.794;9.182;2023-08-30T03:33:34;13.20;99.90
4314;DHT22;2170;48.794;9.182;2023-08-30T03:36:05;13.20;99.90
4314;DHT22;2170;48.794;9.182;2023-08-30T03:38:50;13.20;99.90
4314;DHT22;2170;48.794;9.182;2023-08-30T03:41:19;13.20;99.90
4314;DHT22;2170;48.794;9.182;2023-08-30T03:43:58;13.20;99.90
4314;DHT22;2170;48.794;9.182;2023-08-30T03:46:29;13.20;99.90
4314;DHT22;2170;48.794;9.182;2023-08-30T03:49:09;13.20;99.90
4314;DHT22;2170;48.794;9.182;2023-08-30T03:52:02;13.30;99.90
4314;DHT22;2170;48.794;9.182;2023-08-30T03:54:38;13.30;99.90
4314;DHT22;2170;48.794;9.182;2023-08-30T03:59:55;13.30;99.90
4314;DHT22;2170;48.794;9.182;2023-08-30T04:02:43;13.30;99.90
4314;DHT22;2170;48.794;9.182;2023-08-30T04:05:39;13.30;99.90
4314;DHT22;2170;48.794;9.182;2023-08-30T04:08:19;13.30;99.90
4314;DHT22;2170;48.794;9.182;2023-08-30T04:11:01;13.30;99.90
4314;DHT22;2170;48.794;9.182;2023-08-30T04:13:42;13.30;99.90
4314;DHT22;2170;48.794;9.182;2023-08-30T04:16:18;13.30;99.90
4314;DHT22;2170;48.794;9.182;2023-08-30T04:18:54;13.30;99.90
4314;DHT22;2170;48.794;9.182;2023-08-30T04:21:27;13.50;99.90
4314;DHT22;2170;48.794;9.182;2023-08-30T04:23:57;13.30;99.90
4314;DHT22;2170;48.794;9.182;2023-08-30T04:26:25;13.20;99.90
4314;DHT22;2170;48.794;9.182;2023-08-30T04:28:53;13.30;99.90
4314;DHT22;2170;48.794;9.182;2023-08-30T04:31:25;13.30;99.90
4314;DHT22;2170;48.794;9.182;2023-08-30T04:33:54;13.30;99.90
4314;DHT22;2170;48.794;9.182;2023-08-30T04:36:26;13.70;99.90
4314;DHT22;2170;48.794;9.182;2023-08-30T04:38:59;13.40;99.90
4314;DHT22;2170;48.794;9.182;2023-08-30T04:41:31;13.40;99.90
4314;DHT22;2170;48.794;9.182;2023-08-30T04:44:05;13.40;99.90
4314;DHT22;2170;48.794;9.182;2023-08-30T04:46:45;13.40;99.90
4314;DHT22;2170;48.794;9.182;2023-08-30T04:49:18;13.40;99.90
4314;DHT22;2170;48.794;9.182;2023-08-30T04:51:47;13.40;99.90
4314;DHT22;2170;48.794;9.182;2023-08-30T04:54:17;13.40;99.90
4314;DHT22;2170;48.794;9.182;2023-08-30T04:56:59;13.40;99.90
4314;DHT22;2170;48.794;9.182;2023-08-30T04:59:49;13.40;99.90
4314;DHT22;2170;48.794;9.182;2023-08-30T05:02:19;13.40;99.90
4314;DHT22;2170;48.794;9.182;2023-08-30T05:04:50;13.50;99.90
4314;DHT22;2170;48.794;9.182;2023-08-30T05:07:40;13.50;99.90
4314;DHT22;2170;48.794;9.182;2023-08-30T05:10:23;13.50;99.90
4314;DHT22;2170;48.794;9.182;2023-08-30T05:16:11;13.60;99.90
4314;DHT22;2170;48.794;9.182;2023-08-30T05:18:53;13.50;99.90
4314;DHT22;2170;48.794;9.182;2023-08-30T05:21:29;13.60;99.90
4314;DHT22;2170;48.794;9.182;2023-08-30T05:24:05;13.60;99.90
4314;DHT22;2170;48.794;9.182;2023-08-30T05:26:51;13.60;99.90
4314;DHT22;2170;48.794;9.182;2023-08-30T05:29:19;13.60;99.90
4314;DHT22;2170;48.794;9.182;2023-08-30T05:31:53;13.60;99.90
4314;DHT22;2170;48.794;9.182;2023-08-30T05:34:33;13.60;99.90
4314;DHT22;2170;48.794;9.182;2023-08-30T05:37:09;13.60;99.90
4314;DHT22;2170;48.794;9.182;2023-08-30T05:40:09;13.60;99.90
4314;DHT22;2170;48.794;9.182;2023-08-30T05:42:54;13.60;99.90
4314;DHT22;2170;48.794;9.182;2023-08-30T05:45:52;13.60;99.90
4314;DHT22;2170;48.794;9.182;2023-08-30T05:49:08;13.70;99.90
4314;DHT22;2170;48.794;9.182;2023-08-30T05:51:53;13.70;99.90
4314;DHT22;2170;48.794;9.182;2023-08-30T05:54:50;13.80;99.90
4314;DHT22;2170;48.794;9.182;2023-08-30T05:57:22;13.80;99.90
4314;DHT22;2170;48.794;9.182;2023-08-30T05:59:53;13.80;99.90
4314;DHT22;2170;48.794;9.182;2023-08-30T06:05:10;13.90;99.90
4314;DHT22;2170;48.794;9.182;2023-08-30T06:07:37;13.90;99.90
4314;DHT22;2170;48.794;9.182;2023-08-30T06:10:13;14.20;99.90
4314;DHT22;2170;48.794;9.182;2023-08-30T06:12:52;14.00;99.90
4314;DHT22;2170;48.794;9.182;2023-08-30T06:15:26;14.00;99.90
4314;DHT22;2170;48.794;9.182;2023-08-30T06:20:55;14.00;99.90
4314;DHT22;2170;48.794;9.182;2023-08-30T06:23:33;14.00;99.90
4314;DHT22;2170;48.794;9.182;2023-08-30T06:26:26;14.00;99.90
4314;DHT22;2170;48.794;9.182;2023-08-30T06:29:05;14.10;99.90
4314;DHT22;2170;48.794;9.182;2023-08-30T06:31:51;14.10;99.90
4314;DHT22;2170;48.794;9.182;2023-08-30T06:34:26;14.10;99.90
4314;DHT22;2170;48.794;9.182;2023-08-30T06:37:03;14.10;99.90
4314;DHT22;2170;48.794;9.182;2023-08-30T06:39:36;14.20;99.90
4314;DHT22;2170;48.794;9.182;2023-08-30T06:42:13;14.20;99.90
4314;DHT22;2170;48.794;9.182;2023-08-30T06:44:49;14.30;99.90
4314;DHT22;2170;48.794;9.182;2023-08-30T06:47:26;14.30;99.90
4314;DHT22;2170;48.794;9.182;2023-08-30T06:50:06;14.40;99.90
4314;DHT22;2170;48.794;9.182;2023-08-30T06:52:40;14.50;99.90
4314;DHT22;2170;48.794;9.182;2023-08-30T06:55:16;14.50;99.90
4314;DHT22;2170;48.794;9.182;2023-08-30T06:57:48;14.60;99.90
4314;DHT22;2170;48.794;9.182;2023-08-30T07:00:23;14.60;99.90
4314;DHT22;2170;48.794;9.182;2023-08-30T07:02:57;14.70;99.90
4314;DHT22;2170;48.794;9.182;2023-08-30T07:05:31;14.70;99.90
4314;DHT22;2170;48.794;9.182;2023-08-30T07:08:15;14.70;99.90
4314;DHT22;2170;48.794;9.182;2023-08-30T07:10:51;14.70;99.90
4314;DHT22;2170;48.794;9.182;2023-08-30T07:13:29;14.80;99.90
4314;DHT22;2170;48.794;9.182;2023-08-30T07:16:05;14.70;99.90
4314;DHT22;2170;48.794;9.182;2023-08-30T07:18:39;14.80;99.90
4314;DHT22;2170;48.794;9.182;2023-08-30T07:21:21;14.80;99.90
4314;DHT22;2170;48.794;9.182;2023-08-30T07:23:59;14.90;99.90
4314;DHT22;2170;48.794;9.182;2023-08-30T07:26:28;14.90;99.90
4314;DHT22;2170;48.794;9.182;2023-08-30T07:29:08;14.90;99.90
4314;DHT22;2170;48.794;9.182;2023-08-30T07:31:38;15.00;99.90
4314;DHT22;2170;48.794;9.182;2023-08-30T07:34:18;14.90;99.90
4314;DHT22;2170;48.794;9.182;2023-08-30T07:36:56;14.90;99.90
4314;DHT22;2170;48.794;9.182;2023-08-30T07:39:33;15.20;99.90
4314;DHT22;2170;48.794;9.182;2023-08-30T07:42:06;15.00;99.90
4314;DHT22;2170;48.794;9.182;2023-08-30T07:44:38;15.00;99.90
4314;DHT22;2170;48.794;9.182;2023-08-30T07:47:18;15.10;99.90
4314;DHT22;2170;48.794;9.182;2023-08-30T07:49:54;15.20;99.90
4314;DHT22;2170;48.794;9.182;2023-08-30T07:52:28;15.20;99.90
4314;DHT22;2170;48.794;9.182;2023-08-30T07:55:00;15.30;99.90
4314;DHT22;2170;48.794;9.182;2023-08-30T07:57:37;15.40;99.90
4314;DHT22;2170;48.794;9.182;2023-08-30T08:00:16;15.40;99.90
4314;DHT22;2170;48.794;9.182;2023-08-30T08:02:56;15.40;99.90
4314;DHT22;2170;48.794;9.182;2023-08-30T08:05:40;15.50;99.90
4314;DHT22;2170;48.794;9.182;2023-08-30T08:08:15;15.50;99.90
4314;DHT22;2170;48.794;9.182;2023-08-30T08:10:51;15.60;99.90
4314;DHT22;2170;48.794;9.182;2023-08-30T08:13:33;15.70;99.90
4314;DHT22;2170;48.794;9.182;2023-08-30T08:16:09;15.80;99.90
4314;DHT22;2170;48.794;9.182;2023-08-30T08:18:46;15.80;99.90
4314;DHT22;2170;48.794;9.182;2023-08-30T08:22:01;15.70;99.90
4314;DHT22;2170;48.794;9.182;2023-08-30T08:24:32;15.80;99.90
4314;DHT22;2170;48.794;9.182;2023-08-30T08:27:21;15.80;99.90
4314;DHT22;2170;48.794;9.182;2023-08-30T08:30:18;16.00;99.90
4314;DHT22;2170;48.794;9.182;2023-08-30T08:33:10;16.10;99.90
4314;DHT22;2170;48.794;9.182;2023-08-30T08:36:02;16.10;99.90
4314;DHT22;2170;48.794;9.182;2023-08-30T08:38:45;16.20;99.90
4314;DHT22;2170;48.794;9.182;2023-08-30T08:41:20;16.10;99.90
4314;DHT22;2170;48.794;9.182;2023-08-30T08:44:16;16.00;99.90
4314;DHT22;2170;48.794;9.182;2023-08-30T08:46:54;16.10;99.90
4314;DHT22;2170;48.794;9.182;2023-08-30T08:49:25;16.30;99.90
4314;DHT22;2170;48.794;9.182;2023-08-30T08:51:58;16.50;99.90
4314;DHT22;2170;48.794;9.182;2023-08-30T08:54:38;16.60;99.90
4314;DHT22;2170;48.794;9.182;2023-08-30T08:57:18;16.80;99.90
4314;DHT22;2170;48.794;9.182;2023-08-30T08:59:55;17.00;99.90
4314;DHT22;2170;48.794;9.182;2023-08-30T09:02:30;17.30;99.90
4314;DHT22;2170;48.794;9.182;2023-08-30T09:05:15;17.50;99.90
4314;DHT22;2170;48.794;9.182;2023-08-30T09:08:07;17.50;99.90
4314;DHT22;2170;48.794;9.182;2023-08-30T09:10:55;17.60;99.90
4314;DHT22;2170;48.794;9.182;2023-08-30T09:13:37;17.70;99.90
4314;DHT22;2170;48.794;9.182;2023-08-30T09:16:33;17.70;99.90
4314;DHT22;2170;48.794;9.182;2023-08-30T09:19:19;17.90;99.90
4314;DHT22;2170;48.794;9.182;2023-08-30T09:22:36;17.90;99.90
4314;DHT22;2170;48.794;9.182;2023-08-30T09:25:24;17.80;99.90
4314;DHT22;2170;48.794;9.182;2023-08-30T09:28:14;18.30;99.90
4314;DHT22;2170;48.794;9.182;2023-08-30T09:30:51;18.50;99.90
4314;DHT22;2170;48.794;9.182;2023-08-30T09:33:29;18.90;99.90
4314;DHT22;2170;48.794;9.182;2023-08-30T09:36:09;19.10;99.90
4314;DHT22;2170;48.794;9.182;2023-08-30T09:38:53;19.40;99.90
4314;DHT22;2170;48.794;9.182;2023-08-30T09:41:28;19.30;99.90
4314;DHT22;2170;48.794;9.182;2023-08-30T09:44:16;19.50;99.90
4314;DHT22;2170;48.794;9.182;2023-08-30T09:46:56;19.60;99.90
4314;DHT22;2170;48.794;9.182;2023-08-30T09:49:41;19.80;99.90
4314;DHT22;2170;48.794;9.182;2023-08-30T09:52:15;20.10;99.90
4314;DHT22;2170;48.794;9.182;2023-08-30T09:54:58;19.80;99.90
4314;DHT22;2170;48.794;9.182;2023-08-30T10:01:06;20.00;99.90
4314;DHT22;2170;48.794;9.182;2023-08-30T10:03:53;20.70;99.90
4314;DHT22;2170;48.794;9.182;2023-08-30T10:06:23;20.70;99.90
4314;DHT22;2170;48.794;9.182;2023-08-30T10:09:00;21.10;99.90
4314;DHT22;2170;48.794;9.182;2023-08-30T10:11:44;21.30;99.90
4314;DHT22;2170;48.794;9.182;2023-08-30T10:14:20;21.60;99.90
4314;DHT22;2170;48.794;9.182;2023-08-30T10:16:55;21.80;99.90
4314;DHT22;2170;48.794;9.182;2023-08-30T10:19:29;21.30;99.90
4314;DHT22;2170;48.794;9.182;2023-08-30T10:22:03;21.80;99.90
4314;DHT22;2170;48.794;9.182;2023-08-30T10:24:39;22.10;99.90
4314;DHT22;2170;48.794;9.182;2023-08-30T10:27:41;22.10;99.90
4314;DHT22;2170;48.794;9.182;2023-08-30T10:30:29;22.30;99.90
4314;DHT22;2170;48.794;9.182;2023-08-30T10:33:22;22.40;99.90
4314;DHT22;2170;48.794;9.182;2023-08-30T10:36:08;22.80;99.90
4314;DHT22;2170;48.794;9.182;2023-08-30T10:38:49;23.00;99.90
4314;DHT22;2170;48.794;9.182;2023-08-30T10:42:06;23.40;99.90
4314;DHT22;2170;48.794;9.182;2023-08-30T10:44:56;23.50;99.90
4314;DHT22;2170;48.794;9.182;2023-08-30T10:47:40;23.60;99.90
4314;DHT22;2170;48.794;9.182;2023-08-30T10:50:43;23.70;99.90
4314;DHT22;2170;48.794;9.182;2023-08-30T10:56:58;23.80;99.90
4314;DHT22;2170;48.794;9.182;2023-08-30T11:02:22;23.30;99.90
4314;DHT22;2170;48.794;9.182;2023-08-30T11:04:54;23.50;99.90
4314;DHT22;2170;48.794;9.182;2023-08-30T11:07:44;23.40;99.90
4314;DHT22;2170;48.794;9.182;2023-08-30T11:10:26;23.20;99.90
4314;DHT22;2170;48.794;9.182;2023-08-30T11:13:16;23.60;99.90
4314;DHT22;2170;48.794;9.182;2023-08-30T11:15:53;24.10;99.90
4314;DHT22;2170;48.794;9.182;2023-08-30T11:18:33;24.40;99.90
4314;DHT22;2170;48.794;9.182;2023-08-30T11:21:14;24.50;99.90
4314;DHT22;2170;48.794;9.182;2023-08-30T11:24:08;24.70;99.90
4314;DHT22;2170;48.794;9.182;2023-08-30T11:26:52;24.60;99.90
4314;DHT22;2170;48.794;9.182;2023-08-30T11:30:09;24.70;99.90
4314;DHT22;2170;48.794;9.182;2023-08-30T11:32:44;24.10;99.90
4314;DHT22;2170;48.794;9.182;2023-08-30T11:35:18;24.20;99.90
4314;DHT22;2170;48.794;9.182;2023-08-30T11:38:00;23.80;99.90
4314;DHT22;2170;48.794;9.182;2023-08-30T11:40:45;23.20;99.90
4314;DHT22;2170;48.794;9.182;2023-08-30T11:43:29;22.50;99.90
4314;DHT22;2170;48.794;9.182;2023-08-30T11:46:05;21.60;99.90
4314;DHT22;2170;48.794;9.182;2023-08-30T11:48:41;20.80;99.90
4314;DHT22;2170;48.794;9.182;2023-08-30T11:51:25;20.50;99.90
4314;DHT22;2170;48.794;9.182;2023-08-30T11:54:07;20.50;99.90
4314;DHT22;2170;48.794;9.182;2023-08-30T11:56:59;20.00;99.90
4314;DHT22;2170;48.794;9.182;2023-08-30T11:59:40;19.60;99.90
4314;DHT22;2170;48.794;9.182;2023-08-30T12:02:30;19.50;99.90
4314;DHT22;2170;48.794;9.182;2023-08-30T12:05:25;19.30;99.90
4314;DHT22;2170;48.794;9.182;2023-08-30T12:08:01;19.20;99.90
4314;DHT22;2170;48.794;9.182;2023-08-30T12:10:46;19.00;99.90
4314;DHT22;2170;48.794;9.182;2023-08-30T12:17:00;18.70;99.90
4314;DHT22;2170;48.794;9.182;2023-08-30T12:19:43;18.80;99.90
4314;DHT22;2170;48.794;9.182;2023-08-30T12:22:45;18.30;99.90
4314;DHT22;2170;48.794;9.182;2023-08-30T12:32:01;18.50;99.90
4314;DHT22;2170;48.794;9.182;2023-08-30T12:34:53;18.70;99.90
4314;DHT22;2170;48.794;9.182;2023-08-30T12:37:31;18.70;99.90
4314;DHT22;2170;48.794;9.182;2023-08-30T12:40:07;18.60;99.90
4314;DHT22;2170;48.794;9.182;2023-08-30T12:42:43;18.60;99.90
4314;DHT22;2170;48.794;9.182;2023-08-30T12:45:27;18.80;99.90
4314;DHT22;2170;48.794;9.182;2023-08-30T12:48:28;18.80;99.90
4314;DHT22;2170;48.794;9.182;2023-08-30T12:51:10;18.60;99.90
4314;DHT22;2170;48.794;9.182;2023-08-30T12:53:48;18.50;99.90
4314;DHT22;2170;48.794;9.182;2023-08-30T12:56:22;18.80;99.90
4314;DHT22;2170;48.794;9.182;2023-08-30T12:59:09;18.80;99.90
4314;DHT22;2170;48.794;9.182;2023-08-30T13:01:45;19.00;99.90
4314;DHT22;2170;48.794;9.182;2023-08-30T13:04:22;19.20;99.90
4314;DHT22;2170;48.794;9.182;2023-08-30T13:07:17;19.20;99.90
4314;DHT22;2170;48.794;9.182;2023-08-30T13:09:48;19.30;99.90
4314;DHT22;2170;48.794;9.182;2023-08-30T13:12:28;19.40;99.90
4314;DHT22;2170;48.794;9.182;2023-08-30T13:15:10;19.50;99.90
4314;DHT22;2170;48.794;9.182;2023-08-30T13:17:41;19.60;99.90
4314;DHT22;2170;48.794;9.182;2023-08-30T13:20:12;19.60;99.90
4314;DHT22;2170;48.794;9.182;2023-08-30T13:22:51;19.40;99.90
4314;DHT22;2170;48.794;9.182;2023-08-30T13:25:22;19.90;99.90
4314;DHT22;2170;48.794;9.182;2023-08-30T13:49:37;21.70;99.90
4314;DHT22;2170;48.794;9.182;2023-08-30T13:52:15;22.10;99.90
4314;DHT22;2170;48.794;9.182;2023-08-30T13:54:51;22.50;99.90
4314;DHT22;2170;48.794;9.182;2023-08-30T13:57:28;22.60;99.90
4314;DHT22;2170;48.794;9.182;2023-08-30T14:00:02;22.60;99.90
4314;DHT22;2170;48.794;9.182;2023-08-30T14:02:45;22.90;99.90
4314;DHT22;2170;48.794;9.182;2023-08-30T14:05:26;22.90;99.90
4314;DHT22;2170;48.794;9.182;2023-08-30T14:07:58;22.80;99.90
4314;DHT22;2170;48.794;9.182;2023-08-30T14:10:37;22.60;99.90
4314;DHT22;2170;48.794;9.182;2023-08-30T14:13:23;21.90;99.90
4314;DHT22;2170;48.794;9.182;2023-08-30T14:15:57;21.50;99.90
4314;DHT22;2170;48.794;9.182;2023-08-30T14:18:42;21.70;99.90
4314;DHT22;2170;48.794;9.182;2023-08-30T14:21:19;21.90;99.90
4314;DHT22;2170;48.794;9.182;2023-08-30T14:33:54;22.20;99.90
4314;DHT22;2170;48.794;9.182;2023-08-30T14:37:00;22.00;99.90
4314;DHT22;2170;48.794;9.182;2023-08-30T14:39:38;21.90;99.90
4314;DHT22;2170;48.794;9.182;2023-08-30T14:42:29;21.80;99.90
4314;DHT22;2170;48.794;9.182;2023-08-30T14:45:05;21.70;99.90
4314;DHT22;2170;48.794;9.182;2023-08-30T14:47:54;21.40;99.90
4314;DHT22;2170;48.794;9.182;2023-08-30T14:50:36;21.30;99.90
4314;DHT22;2170;48.794;9.182;2023-08-30T14:53:23;21.20;99.90
4314;DHT22;2170;48.794;9.182;2023-08-30T14:56:09;20.90;99.90
4314;DHT22;2170;48.794;9.182;2023-08-30T14:59:09;20.70;99.90
4314;DHT22;2170;48.794;9.182;2023-08-30T15:01:53;20.70;99.90
4314;DHT22;2170;48.794;9.182;2023-08-30T15:04:47;20.70;99.90
4314;DHT22;2170;48.794;9.182;2023-08-30T15:11:11;20.30;99.90
4314;DHT22;2170;48.794;9.182;2023-08-30T15:14:06;20.50;99.90
4314;DHT22;2170;48.794;9.182;2023-08-30T15:19:40;20.60;99.90
4314;DHT22;2170;48.794;9.182;2023-08-30T15:22:27;20.70;99.90
4314;DHT22;2170;48.794;9.182;2023-08-30T15:25:13;20.70;99.90
4314;DHT22;2170;48.794;9.182;2023-08-30T15:28:04;20.70;99.90
4314;DHT22;2170;48.794;9.182;2023-08-30T15:30:58;20.80;99.90
4314;DHT22;2170;48.794;9.182;2023-08-30T15:33:36;21.00;99.90
4314;DHT22;2170;48.794;9.182;2023-08-30T15:36:26;21.00;99.90
4314;DHT22;2170;48.794;9.182;2023-08-30T15:39:16;21.20;99.90
4314;DHT22;2170;48.794;9.182;2023-08-30T15:41:58;21.30;99.90
4314;DHT22;2170;48.794;9.182;2023-08-30T15:44:40;21.50;99.90
4314;DHT22;2170;48.794;9.182;2023-08-30T15:47:21;21.40;99.90
4314;DHT22;2170;48.794;9.182;2023-08-30T15:50:02;21.40;99.90
4314;DHT22;2170;48.794;9.182;2023-08-30T15:52:56;21.50;99.90
4314;DHT22;2170;48.794;9.182;2023-08-30T15:55:31;21.40;99.90
4314;DHT22;2170;48.794;9.182;2023-08-30T15:58:11;21.60;99.90
4314;DHT22;2170;48.794;9.182;2023-08-30T16:00:48;21.70;99.90
4314;DHT22;2170;48.794;9.182;2023-08-30T16:03:28;22.00;99.90
4314;DHT22;2170;48.794;9.182;2023-08-30T16:06:11;21.80;99.90
4314;DHT22;2170;48.794;9.182;2023-08-30T16:08:45;21.90;99.90
4314;DHT22;2170;48.794;9.182;2023-08-30T16:11:18;22.10;99.90
4314;DHT22;2170;48.794;9.182;2023-08-30T16:13:55;22.10;99.90
4314;DHT22;2170;48.794;9.182;2023-08-30T16:25:16;21.60;99.90
4314;DHT22;2170;48.794;9.182;2023-08-30T16:27:47;21.50;99.90
4314;DHT22;2170;48.794;9.182;2023-08-30T16:30:20;21.50;99.90
4314;DHT22;2170;48.794;9.182;2023-08-30T16:32:51;21.40;99.90
4314;DHT22;2170;48.794;9.182;2023-08-30T16:35:27;21.50;99.90
4314;DHT22;2170;48.794;9.182;2023-08-30T16:38:04;21.40;99.90
4314;DHT22;2170;48.794;9.182;2023-08-30T16:40:51;21.40;99.90
4314;DHT22;2170;48.794;9.182;2023-08-30T16:43:43;21.30;99.90
4314;DHT22;2170;48.794;9.182;2023-08-30T16:46:27;21.40;99.90
4314;DHT22;2170;48.794;9.182;2023-08-30T16:49:05;21.50;99.90
4314;DHT22;2170;48.794;9.182;2023-08-30T16:51:44;21.60;99.90
4314;DHT22;2170;48.794;9.182;2023-08-30T16:54:30;21.60;99.90
4314;DHT22;2170;48.794;9.182;2023-08-30T16:57:07;21.60;99.90
4314;DHT22;2170;48.794;9.182;2023-08-30T16:59:49;21.50;99.90
4314;DHT22;2170;48.794;9.182;2023-08-30T17:02:42;21.40;99.90
4314;DHT22;2170;48.794;9.182;2023-08-30T17:05:26;21.40;99.90
4314;DHT22;2170;48.794;9.182;2023-08-30T17:14:30;21.20;99.90
4314;DHT22;2170;48.794;9.182;2023-08-30T17:27:42;20.80;99.90
4314;DHT22;2170;48.794;9.182;2023-08-30T17:30:42;20.70;99.90
4314;DHT22;2170;48.794;9.182;2023-08-30T17:33:20;20.60;99.90
4314;DHT22;2170;48.794;9.182;2023-08-30T18:02:30;19.60;99.90
4314;DHT22;2170;48.794;9.182;2023-08-30T18:05:07;19.60;99.90
4314;DHT22;2170;48.794;9.182;2023-08-30T18:07:43;19.60;99.90
4314;DHT22;2170;48.794;9.182;2023-08-30T18:10:22;19.60;99.90
4314;DHT22;2170;48.794;9.182;2023-08-30T18:12:54;19.50;99.90
4314;DHT22;2170;48.794;9.182;2023-08-30T18:15:34;19.40;99.90
4314;DHT22;2170;48.794;9.182;2023-08-30T18:18:14;19.40;99.90
4314;DHT22;2170;48.794;9.182;2023-08-30T18:21:19;19.30;99.90
4314;DHT22;2170;48.794;9.182;2023-08-30T18:24:16;19.30;99.90
4314;DHT22;2170;48.794;9.182;2023-08-30T18:27:06;19.20;99.90
4314;DHT22;2170;48.794;9.182;2023-08-30T18:30:07;19.10;99.90
4314;DHT22;2170;48.794;9.182;2023-08-30T18:32:43;19.10;99.90
4314;DHT22;2170;48.794;9.182;2023-08-30T18:35:33;19.00;99.90
4314;DHT22;2170;48.794;9.182;2023-08-30T18:38:13;18.90;99.90
4314;DHT22;2170;48.794;9.182;2023-08-30T18:40:48;18.70;99.90
4314;DHT22;2170;48.794;9.182;2023-08-30T18:43:34;18.70;99.90
4314;DHT22;2170;48.794;9.182;2023-08-30T18:46:25;18.50;99.90
4314;DHT22;2170;48.794;9.182;2023-08-30T18:49:18;18.50;99.90
4314;DHT22;2170;48.794;9.182;2023-08-30T18:52:01;18.20;99.90
4314;DHT22;2170;48.794;9.182;2023-08-30T18:54:39;18.20;99.90
4314;DHT22;2170;48.794;9.182;2023-08-30T19:00:47;18.30;99.90
4314;DHT22;2170;48.794;9.182;2023-08-30T19:03:29;18.20;99.90
4314;DHT22;2170;48.794;9.182;2023-08-30T19:06:04;18.10;99.90
4314;DHT22;2170;48.794;9.182;2023-08-30T19:08:51;18.10;99.90
4314;DHT22;2170;48.794;9.182;2023-08-30T19:11:33;18.00;99.90
4314;DHT22;2170;48.794;9.182;2023-08-30T19:14:16;17.90;99.90
4314;DHT22;2170;48.794;9.182;2023-08-30T19:17:00;17.70;99.90
4314;DHT22;2170;48.794;9.182;2023-08-30T19:19:53;17.70;99.90
4314;DHT22;2170;48.794;9.182;2023-08-30T19:22:22;17.70;99.90
4314;DHT22;2170;48.794;9.182;2023-08-30T19:24:53;17.60;99.90
4314;DHT22;2170;48.794;9.182;2023-08-30T19:27:21;17.60;99.90
4314;DHT22;2170;48.794;9.182;2023-08-30T19:29:49;17.50;99.90
4314;DHT22;2170;48.794;9.182;2023-08-30T19:32:16;17.50;99.90
4314;DHT22;2170;48.794;9.182;2023-08-30T19:34:49;17.50;99.90
4314;DHT22;2170;48.794;9.182;2023-08-30T19:37:29;17.40;99.90